Time;durP1;ratioP1;P1;durP2;ratioP2;P2;SDS_P1;SDS_P2;PMS_P1;PMS_P2;Temp;Humidity;BMP_temperature;BMP_pressure;BME280_temperature;BME280_humidity;BME280_pressure;Samples;Min_cycle;Max_cycle;Signal;HPM_P1;HPM_P2
2021/07/23 00:01:19;;;;;;;5.60;3.23;;;;;;;22.83;100.00;101230.66;5008953;28;20421;-74
2021/07/23 00:03:45;;;;;;;11.13;3.60;;;;;;;22.75;100.00;101228.00;5008948;28;20194;-76
2021/07/23 00:06:11;;;;;;;6.00;2.60;;;;;;;22.78;100.00;101227.63;5008718;28;20245;-73
2021/07/23 00:08:36;;;;;;;7.90;2.43;;;;;;;22.81;100.00;101226.44;5009770;28;20421;-75
2021/07/23 00:11:02;;;;;;;4.70;2.73;;;;;;;22.69;100.00;101231.34;5012042;28;20592;-73
2021/07/23 00:13:28;;;;;;;6.80;2.70;;;;;;;22.77;100.00;101228.66;5009237;28;20244;-73
2021/07/23 00:15:53;;;;;;;5.20;2.57;;;;;;;22.76;100.00;101229.66;5012503;28;20691;-74
2021/07/23 00:18:20;;;;;;;6.90;2.87;;;;;;;22.68;100.00;101225.16;5009933;28;20193;-73
2021/07/23 00:20:45;;;;;;;5.13;2.63;;;;;;;22.61;100.00;101226.81;5009288;28;20202;-71
2021/07/23 00:23:11;;;;;;;9.43;2.97;;;;;;;22.58;100.00;101219.09;5009145;28;20440;-72
2021/07/23 00:25:36;;;;;;;5.23;2.60;;;;;;;22.55;100.00;101226.66;5015005;28;20173;-72
2021/07/23 00:28:02;;;;;;;4.70;2.60;;;;;;;22.51;100.00;101225.31;5012763;28;20659;-72
2021/07/23 00:30:28;;;;;;;5.30;3.00;;;;;;;22.45;100.00;101234.03;5013864;28;20193;-72
2021/07/23 00:32:53;;;;;;;13.60;3.47;;;;;;;22.53;100.00;101232.19;5015803;28;20523;-72
2021/07/23 00:35:20;;;;;;;10.60;3.67;;;;;;;22.51;100.00;101226.13;5010021;28;20556;-73
2021/07/23 00:37:45;;;;;;;4.87;2.40;;;;;;;22.44;100.00;101233.16;5009880;28;20255;-74
2021/07/23 00:40:11;;;;;;;5.93;2.40;;;;;;;22.42;100.00;101225.31;5021018;28;20518;-73
2021/07/23 00:42:42;;;;;;;6.23;2.60;;;;;;;22.45;100.00;101226.84;5010619;28;20699;-72
2021/07/23 00:45:09;;;;;;;5.23;3.20;;;;;;;22.48;100.00;101217.63;5008423;28;20163;-72
2021/07/23 00:47:37;;;;;;;6.90;3.07;;;;;;;22.42;100.00;101228.00;5010374;28;20410;-72
2021/07/23 00:50:05;;;;;;;4.90;2.23;;;;;;;22.39;100.00;101216.78;5010071;28;20417;-75
2021/07/23 00:52:30;;;;;;;4.73;2.60;;;;;;;22.45;100.00;101218.81;5009148;28;20714;-73
2021/07/23 00:54:56;;;;;;;6.47;2.77;;;;;;;22.33;100.00;101223.66;5010122;28;20526;-73
2021/07/23 00:57:24;;;;;;;5.00;2.40;;;;;;;22.29;100.00;101219.66;5009298;28;20217;-72
2021/07/23 00:59:51;;;;;;;6.03;2.20;;;;;;;22.23;100.00;101217.63;5007858;28;20725;-73
2021/07/23 01:02:16;;;;;;;5.90;2.93;;;;;;;22.15;100.00;101214.94;5004397;28;20437;-73
2021/07/23 01:04:43;;;;;;;5.40;2.93;;;;;;;22.18;100.00;101219.97;5005219;28;20926;-72
2021/07/23 01:07:08;;;;;;;3.73;2.07;;;;;;;22.22;100.00;101223.13;5001079;28;20175;-71
2021/07/23 01:09:34;;;;;;;4.97;2.43;;;;;;;22.17;100.00;101223.66;5011769;28;20416;-74
2021/07/23 01:11:59;;;;;;;7.50;2.33;;;;;;;22.15;100.00;101231.00;5006139;28;20629;-72
2021/07/23 01:14:26;;;;;;;6.73;2.43;;;;;;;22.16;100.00;101227.31;5002753;28;20202;-74
2021/07/23 01:16:51;;;;;;;8.60;2.70;;;;;;;22.22;100.00;101224.00;5001634;28;20233;-72
2021/07/23 01:19:18;;;;;;;6.03;2.40;;;;;;;22.14;100.00;101229.31;4998034;28;20442;-73
2021/07/23 01:21:50;;;;;;;5.30;2.40;;;;;;;22.15;100.00;101231.00;5008143;28;20202;-73
2021/07/23 01:24:17;;;;;;;5.57;2.57;;;;;;;22.13;100.00;101236.50;5007084;28;20424;-72
2021/07/23 01:26:43;;;;;;;11.23;2.80;;;;;;;22.06;100.00;101232.78;5008010;28;20414;-75
2021/07/23 01:29:09;;;;;;;10.73;2.50;;;;;;;22.00;100.00;101232.63;5003074;28;20416;-76
2021/07/23 01:31:35;;;;;;;6.23;2.40;;;;;;;22.00;100.00;101232.63;4998424;28;20406;-73
2021/07/23 01:34:01;;;;;;;7.33;2.37;;;;;;;21.98;100.00;101230.09;5003891;28;20167;-76
2021/07/23 01:36:27;;;;;;;5.10;2.70;;;;;;;22.00;100.00;101228.13;5008289;28;20421;-76
2021/07/23 01:38:56;;;;;;;8.43;2.50;;;;;;;21.95;100.00;101224.25;5002828;28;20422;-74
2021/07/23 01:41:22;;;;;;;8.10;2.90;;;;;;;21.91;100.00;101234.44;5003693;28;20637;-73
2021/07/23 01:43:48;;;;;;;7.43;2.40;;;;;;;21.87;100.00;101227.75;5006138;28;20420;-72
2021/07/23 01:46:14;;;;;;;6.73;2.77;;;;;;;21.82;100.00;101227.38;5005501;28;20464;-73
2021/07/23 01:48:39;;;;;;;5.93;2.33;;;;;;;21.79;100.00;101225.88;5001011;28;20265;-72
2021/07/23 01:51:05;;;;;;;7.97;2.40;;;;;;;21.73;100.00;101221.19;5008838;28;20169;-70
2021/07/23 01:53:30;;;;;;;6.20;1.63;;;;;;;21.72;100.00;101216.00;5008620;28;20240;-72
2021/07/23 01:55:56;;;;;;;4.93;2.50;;;;;;;21.66;100.00;101220.16;5010084;28;20182;-73
2021/07/23 01:58:21;;;;;;;4.40;2.20;;;;;;;21.68;100.00;101228.03;5003491;28;20188;-73
2021/07/23 02:00:47;;;;;;;8.50;2.20;;;;;;;21.69;100.00;101222.53;5004365;28;20207;-75
2021/07/23 02:03:12;;;;;;;10.23;2.60;;;;;;;21.71;100.00;101214.34;5003494;28;20166;-74
2021/07/23 02:05:38;;;;;;;4.43;2.20;;;;;;;21.77;100.00;101216.38;4998721;28;20241;-73
2021/07/23 02:08:03;;;;;;;7.43;2.30;;;;;;;21.70;100.00;101218.84;5006648;28;20708;-73
2021/07/23 02:10:29;;;;;;;5.93;2.60;;;;;;;21.68;100.00;101226.19;5009781;28;20193;-72
2021/07/23 02:12:56;;;;;;;6.20;2.50;;;;;;;21.64;100.00;101234.72;5000274;28;20170;-75
2021/07/23 02:15:22;;;;;;;7.13;2.47;;;;;;;21.63;100.00;101233.88;5004408;28;20170;-76
2021/07/23 02:17:48;;;;;;;6.37;2.40;;;;;;;21.63;100.00;101239.22;5009424;28;20531;-72
2021/07/23 02:20:13;;;;;;;5.90;2.63;;;;;;;21.54;100.00;101235.69;5000801;28;20195;-75
2021/07/23 02:22:39;;;;;;;6.87;2.60;;;;;;;21.57;100.00;101240.69;4996111;28;20217;-73
2021/07/23 02:25:05;;;;;;;20.60;4.60;;;;;;;21.47;100.00;101233.81;5006782;28;20570;-75
2021/07/23 02:27:34;;;;;;;5.73;2.60;;;;;;;21.49;100.00;101234.50;5003318;28;20162;-73
2021/07/23 02:30:00;;;;;;;6.10;2.50;;;;;;;21.46;100.00;101241.00;5008721;28;20413;-73
2021/07/23 02:32:25;;;;;;;5.90;2.57;;;;;;;21.51;100.00;101238.66;5009685;28;20449;-75
2021/07/23 02:34:51;;;;;;;5.57;2.13;;;;;;;21.45;100.00;101238.47;5009236;28;21052;-73
2021/07/23 02:37:16;;;;;;;8.47;2.83;;;;;;;21.42;100.00;101234.28;5004287;28;20174;-72
2021/07/23 02:39:42;;;;;;;5.37;2.20;;;;;;;21.42;100.00;101234.28;5009239;28;20220;-77
2021/07/23 02:42:07;;;;;;;7.77;2.50;;;;;;;21.39;100.00;101233.78;5002108;28;20198;-73
2021/07/23 02:44:33;;;;;;;6.70;2.50;;;;;;;21.39;100.00;101236.47;5010076;28;20170;-72
2021/07/23 02:46:58;;;;;;;5.77;3.13;;;;;;;21.38;100.00;101232.91;4998866;28;20167;-72
2021/07/23 02:49:24;;;;;;;5.37;2.20;;;;;;;21.29;100.00;101237.41;5004759;28;20181;-72
2021/07/23 02:51:49;;;;;;;7.77;2.70;;;;;;;21.23;100.00;101234.50;5000367;28;20652;-73
2021/07/23 02:54:15;;;;;;;5.17;2.70;;;;;;;21.24;100.00;101238.88;5008802;28;20170;-72
2021/07/23 02:56:40;;;;;;;6.83;2.40;;;;;;;21.20;100.00;101243.69;4998517;28;20162;-74
2021/07/23 02:59:06;;;;;;;6.30;2.40;;;;;;;21.21;100.00;101241.84;5002220;28;20186;-72
2021/07/23 03:01:31;;;;;;;12.00;3.37;;;;;;;21.13;100.00;101228.44;5006346;28;20162;-74
2021/07/23 03:03:57;;;;;;;8.13;2.63;;;;;;;21.17;100.00;101238.66;4998000;28;20209;-71
2021/07/23 03:06:22;;;;;;;5.83;2.57;;;;;;;21.15;100.00;101242.47;5006660;28;20257;-73
2021/07/23 03:08:48;;;;;;;7.37;2.77;;;;;;;21.14;100.00;101238.13;5005404;28;20181;-73
2021/07/23 03:11:15;;;;;;;6.63;2.90;;;;;;;21.10;100.00;101247.47;5007442;28;20194;-71
2021/07/23 03:13:41;;;;;;;12.80;3.00;;;;;;;21.08;100.00;101250.28;5009236;28;20600;-76
2021/07/23 03:16:14;;;;;;;4.83;2.40;;;;;;;21.03;100.00;101245.44;5007863;28;20410;-72
2021/07/23 03:18:40;;;;;;;8.07;2.80;;;;;;;21.11;100.00;101247.31;4998226;28;20626;-72
2021/07/23 03:21:05;;;;;;;9.53;4.40;;;;;;;21.08;100.00;101247.59;5004939;28;20473;-72
2021/07/23 03:23:31;;;;;;;14.60;3.10;;;;;;;21.06;100.00;101255.78;5003112;28;20806;-72
2021/07/23 03:25:56;;;;;;;5.03;3.10;;;;;;;21.03;100.00;101244.59;5000987;28;20174;-72
2021/07/23 03:28:22;;;;;;;8.23;2.60;;;;;;;21.00;100.00;101245.72;5000370;28;20485;-71
2021/07/23 03:30:47;;;;;;;5.50;2.40;;;;;;;21.08;100.00;101246.78;5005133;28;20202;-72
2021/07/23 03:33:13;;;;;;;10.27;3.60;;;;;;;21.09;100.00;101252.00;5005048;28;20182;-74
2021/07/23 03:35:38;;;;;;;6.73;2.67;;;;;;;21.10;100.00;101255.50;5010510;28;20203;-73
2021/07/23 03:38:04;;;;;;;7.20;2.73;;;;;;;21.11;100.00;101258.00;5010600;28;20190;-72
2021/07/23 03:40:29;;;;;;;5.93;2.73;;;;;;;21.03;100.00;101255.28;4996405;28;20191;-73
2021/07/23 03:42:55;;;;;;;8.07;3.00;;;;;;;21.11;100.00;101255.34;5007694;28;20257;-72
2021/07/23 03:45:20;;;;;;;8.20;2.80;;;;;;;21.11;100.00;101259.84;5001076;28;20245;-72
2021/07/23 03:47:46;;;;;;;6.23;3.23;;;;;;;21.10;100.00;101261.69;5010701;28;20167;-73
2021/07/23 03:50:11;;;;;;;5.83;2.73;;;;;;;21.05;100.00;101261.31;5010745;28;20170;-72
2021/07/23 03:52:37;;;;;;;5.47;2.67;;;;;;;21.07;100.00;101264.66;5013459;28;20170;-73
2021/07/23 03:55:03;;;;;;;7.43;2.60;;;;;;;21.08;100.00;101266.31;5011358;28;20217;-72
2021/07/23 03:57:28;;;;;;;7.53;2.73;;;;;;;21.14;100.00;101260.34;5010421;28;20171;-74
2021/07/23 03:59:54;;;;;;;6.63;2.80;;;;;;;21.17;100.00;101260.03;5008276;28;20528;-73
2021/07/23 04:02:19;;;;;;;6.50;2.80;;;;;;;21.16;100.00;101265.53;5007154;28;20261;-72
2021/07/23 04:04:45;;;;;;;10.20;3.27;;;;;;;21.21;100.00;101272.09;5011386;28;20166;-74
2021/07/23 04:07:10;;;;;;;5.20;2.73;;;;;;;21.28;100.00;101259.78;5002780;28;20171;-71
2021/07/23 04:09:35;;;;;;;6.63;3.50;;;;;;;21.35;100.00;101262.66;4997163;28;20194;-76
2021/07/23 04:12:01;;;;;;;4.80;2.60;;;;;;;21.36;100.00;101264.34;5010423;28;20197;-71
2021/07/23 04:14:26;;;;;;;8.00;2.83;;;;;;;21.42;100.00;101261.03;5033010;28;20214;-72
2021/07/23 04:16:52;;;;;;;7.47;2.77;;;;;;;21.47;100.00;101266.75;5010047;28;20166;-72
2021/07/23 04:19:17;;;;;;;8.53;2.90;;;;;;;21.50;100.00;101263.75;5005088;28;20539;-75
2021/07/23 04:21:43;;;;;;;7.87;2.67;;;;;;;21.52;100.00;101256.38;5011897;28;20271;-73
2021/07/23 04:24:09;;;;;;;7.40;2.20;;;;;;;21.56;100.00;101262.28;5002441;28;20245;-74
2021/07/23 04:26:35;;;;;;;6.47;2.97;;;;;;;21.57;100.00;101253.25;5009572;28;20170;-73
2021/07/23 04:29:01;;;;;;;7.00;2.70;;;;;;;21.62;100.00;101252.78;5010348;28;20197;-76
2021/07/23 04:31:27;;;;;;;4.40;2.40;;;;;;;21.61;100.00;101251.91;5005082;28;20911;-74
2021/07/23 04:33:52;;;;;;;7.63;2.30;;;;;;;21.71;100.00;101251.78;5004512;28;20433;-77
2021/07/23 04:36:18;;;;;;;6.27;3.00;;;;;;;21.73;100.00;101252.47;5010796;28;20216;-73
2021/07/23 04:38:43;;;;;;;7.60;2.80;;;;;;;21.71;100.00;101243.75;5012447;28;20174;-77
2021/07/23 04:41:09;;;;;;;5.10;2.20;;;;;;;21.83;100.00;101245.13;5010250;28;20713;-74
2021/07/23 04:43:38;;;;;;;13.90;3.03;;;;;;;21.85;100.00;101246.66;5007978;28;20162;-75
2021/07/23 04:46:04;;;;;;;4.80;2.30;;;;;;;21.85;100.00;101251.16;5008345;28;20414;-73
2021/07/23 04:48:29;;;;;;;5.27;2.33;;;;;;;21.84;100.00;101261.03;5008150;28;20430;-73
2021/07/23 04:50:55;;;;;;;4.50;2.10;;;;;;;21.83;100.00;101245.94;5003098;28;20422;-72
2021/07/23 04:53:20;;;;;;;6.77;4.03;;;;;;;21.89;100.00;101253.34;5007483;28;20335;-75
2021/07/23 04:55:50;;;;;;;10.47;3.00;;;;;;;21.95;100.00;101256.38;5007069;28;20252;-73
2021/07/23 04:58:16;;;;;;;5.47;2.00;;;;;;;22.05;100.00;101254.38;5003633;28;20193;-74
2021/07/23 05:00:42;;;;;;;7.10;2.30;;;;;;;22.04;100.00;101250.03;5008601;28;20815;-73
2021/07/23 05:03:08;;;;;;;5.40;2.33;;;;;;;22.14;100.00;101253.41;5000373;28;20417;-73
2021/07/23 05:05:34;;;;;;;4.53;2.23;;;;;;;22.18;100.00;101254.75;5002630;28;20170;-77
2021/07/23 05:08:00;;;;;;;4.73;2.20;;;;;;;22.27;100.00;101261.78;5006658;28;20166;-74
2021/07/23 05:10:26;;;;;;;7.43;2.17;;;;;;;22.37;100.00;101256.31;5001149;28;20405;-74
2021/07/23 05:12:52;;;;;;;5.23;2.60;;;;;;;22.47;100.00;101256.13;5004692;28;20551;-75
2021/07/23 05:15:17;;;;;;;6.33;2.60;;;;;;;22.55;100.00;101253.44;5009641;28;20170;-74
2021/07/23 05:17:43;;;;;;;68.03;47.17;;;;;;;22.59;100.00;101254.78;5011518;28;20163;-75
2021/07/23 05:20:09;;;;;;;7.73;2.87;;;;;;;22.74;100.00;101257.59;5008686;28;20206;-73
2021/07/23 05:22:36;;;;;;;7.87;2.20;;;;;;;22.78;100.00;101251.75;5011599;28;20159;-74
2021/07/23 05:25:02;;;;;;;5.73;2.87;;;;;;;22.78;100.00;101251.75;5011737;28;20416;-73
2021/07/23 05:27:29;;;;;;;5.33;2.47;;;;;;;22.91;100.00;101254.78;5012347;28;20397;-76
2021/07/23 05:29:54;;;;;;;6.30;2.83;;;;;;;22.98;100.00;101252.25;5011649;28;20166;-73
2021/07/23 05:32:20;;;;;;;4.90;2.70;;;;;;;23.07;100.00;101247.72;5010336;28;20440;-74
2021/07/23 05:34:45;;;;;;;6.93;2.90;;;;;;;23.17;100.00;101256.38;5008858;28;20210;-73
2021/07/23 05:37:11;;;;;;;4.33;2.17;;;;;;;23.29;100.00;101256.88;5011250;28;20166;-72
2021/07/23 05:39:41;;;;;;;5.30;2.20;;;;;;;23.38;100.00;101250.47;5011242;28;20206;-73
2021/07/23 05:42:06;;;;;;;14.33;3.00;;;;;;;23.42;100.00;101252.59;5011835;28;20616;-74
2021/07/23 05:44:33;;;;;;;4.47;2.63;;;;;;;23.51;100.00;101256.13;5011266;28;20441;-73
2021/07/23 05:46:59;;;;;;;6.20;2.50;;;;;;;23.59;100.00;101255.25;5011513;28;20166;-74
2021/07/23 05:49:26;;;;;;;6.77;2.70;;;;;;;23.67;100.00;101255.25;5011299;28;20422;-72
2021/07/23 05:51:51;;;;;;;4.80;2.63;;;;;;;23.75;100.00;101247.97;5010756;28;20825;-71
2021/07/23 05:54:19;;;;;;;7.30;2.70;;;;;;;23.81;100.00;101249.13;5011526;28;20991;-74
2021/07/23 05:56:45;;;;;;;9.23;2.80;;;;;;;23.90;100.00;101256.13;5010667;28;20265;-72
2021/07/23 05:59:11;;;;;;;4.87;2.50;;;;;;;23.93;100.00;101250.38;5009726;28;20516;-77
2021/07/23 06:01:36;;;;;;;8.50;3.13;;;;;;;23.99;100.00;101247.00;5007904;28;20387;-73
2021/07/23 06:04:02;;;;;;;5.63;2.87;;;;;;;24.09;100.00;101247.59;5000743;28;20178;-74
2021/07/23 06:06:27;;;;;;;6.63;2.80;;;;;;;24.15;100.00;101239.84;5009014;28;20190;-73
2021/07/23 06:08:57;;;;;;;9.17;2.67;;;;;;;24.22;100.00;101241.63;5011012;28;20162;-74
2021/07/23 06:11:22;;;;;;;9.03;3.20;;;;;;;24.29;100.00;101249.81;5009840;28;20178;-72
2021/07/23 06:13:48;;;;;;;5.60;3.00;;;;;;;24.34;100.00;101237.53;5010719;28;20405;-72
2021/07/23 06:16:14;;;;;;;8.47;3.33;;;;;;;24.41;100.00;101236.78;5010540;28;20170;-72
2021/07/23 06:18:39;;;;;;;9.93;2.80;;;;;;;24.51;100.00;101238.25;5010682;28;20170;-78
2021/07/23 06:21:08;;;;;;;5.20;3.00;;;;;;;24.50;100.00;101233.88;5010662;28;20241;-74
2021/07/23 06:23:34;;;;;;;6.20;2.57;;;;;;;24.58;100.00;101235.66;5010770;28;20169;-75
2021/07/23 06:26:03;;;;;;;4.73;2.37;;;;;;;24.50;100.00;101220.44;5011089;28;20418;-76
2021/07/23 06:28:29;;;;;;;5.27;2.93;;;;;;;24.49;100.00;101228.69;5010839;28;20420;-76
2021/07/23 06:31:02;;;;;;;6.27;2.97;;;;;;;24.55;100.00;101220.72;5010552;28;20416;-75
2021/07/23 06:33:27;;;;;;;8.10;2.90;;;;;;;24.66;100.00;101221.31;5005328;28;20644;-75
2021/07/23 06:35:53;;;;;;;7.90;2.80;;;;;;;24.73;100.00;101220.41;5009246;28;20500;-75
2021/07/23 06:38:18;;;;;;;7.73;2.90;;;;;;;24.87;100.00;101218.75;5004221;28;20182;-76
2021/07/23 06:40:44;;;;;;;7.30;2.40;;;;;;;24.88;100.00;101217.72;5009739;28;20221;-75
2021/07/23 06:43:09;;;;;;;10.00;2.83;;;;;;;25.01;100.00;101220.59;5010630;28;20197;-78
2021/07/23 06:45:35;;;;;;;5.43;2.60;;;;;;;25.04;100.00;101212.19;5010261;28;20264;-75
2021/07/23 06:48:01;;;;;;;6.70;3.20;;;;;;;25.16;100.00;101220.63;5010227;28;20186;-75
2021/07/23 06:50:27;;;;;;;5.70;2.73;;;;;;;25.29;100.00;101214.59;5010848;28;20583;-75
2021/07/23 06:52:52;;;;;;;8.90;3.43;;;;;;;25.40;100.00;101217.66;5010425;28;20202;-78
2021/07/23 06:55:19;;;;;;;6.80;3.00;;;;;;;25.46;100.00;101210.66;5010528;28;20719;-77
2021/07/23 06:57:45;;;;;;;8.20;3.30;;;;;;;25.44;100.00;101218.94;5010560;28;20514;-75
2021/07/23 07:00:11;;;;;;;6.70;3.10;;;;;;;25.39;100.00;101209.75;5009848;28;21352;-74
2021/07/23 07:02:36;;;;;;;7.43;3.13;;;;;;;25.43;100.00;101209.19;5011834;28;20870;-73
2021/07/23 07:05:05;;;;;;;8.50;3.20;;;;;;;25.44;100.00;101212.72;5013154;28;20257;-75
2021/07/23 07:07:30;;;;;;;6.63;3.27;;;;;;;25.46;100.00;101208.78;5013453;28;20709;-74
2021/07/23 07:09:56;;;;;;;5.87;2.97;;;;;;;25.56;100.00;101207.69;5014376;28;20413;-78
2021/07/23 07:12:21;;;;;;;9.60;3.07;;;;;;;25.60;100.00;101198.19;5014388;28;20636;-76
2021/07/23 07:14:47;;;;;;;8.97;3.67;;;;;;;25.70;100.00;101204.97;5013704;28;20170;-75
2021/07/23 07:17:13;;;;;;;5.33;3.13;;;;;;;25.86;100.00;101192.31;5014074;28;20178;-74
2021/07/23 07:19:38;;;;;;;10.03;2.93;;;;;;;25.88;100.00;101199.16;5013067;28;20293;-73
2021/07/23 07:22:04;;;;;;;11.33;3.37;;;;;;;25.98;98.25;101196.97;5013709;28;20262;-74
2021/07/23 07:24:30;;;;;;;6.53;3.80;;;;;;;26.09;96.59;101205.59;5016327;28;20194;-74
2021/07/23 07:26:55;;;;;;;7.80;2.90;;;;;;;26.15;95.91;101199.44;5013594;28;20536;-77
2021/07/23 07:29:21;;;;;;;5.67;3.17;;;;;;;26.09;92.79;101206.44;5014049;28;20612;-74
2021/07/23 07:31:48;;;;;;;6.20;3.73;;;;;;;26.02;92.25;101194.75;5014272;28;20546;-73
2021/07/23 07:34:13;;;;;;;11.40;3.57;;;;;;;26.07;93.44;101197.72;5013429;28;20213;-72
2021/07/23 07:36:39;;;;;;;6.60;2.77;;;;;;;26.09;91.35;101184.88;5013560;28;20417;-74
2021/07/23 07:39:05;;;;;;;7.67;4.00;;;;;;;26.15;90.36;101188.66;5013585;28;20179;-76
2021/07/23 07:41:32;;;;;;;7.47;3.20;;;;;;;26.24;93.02;101185.63;5013772;28;20449;-75
2021/07/23 07:43:59;;;;;;;7.10;3.83;;;;;;;26.43;90.75;101194.91;5014106;28;20200;-76
2021/07/23 07:46:25;;;;;;;6.10;2.77;;;;;;;26.52;87.58;101195.59;5013891;28;20405;-75
2021/07/23 07:48:50;;;;;;;10.10;3.00;;;;;;;26.43;84.81;101186.84;5013770;28;20193;-77
2021/07/23 07:51:16;;;;;;;10.00;3.13;;;;;;;26.49;84.86;101177.97;5014017;28;20492;-75
2021/07/23 07:53:42;;;;;;;5.60;3.40;;;;;;;26.62;86.92;101185.34;5012213;28;20252;-74
2021/07/23 07:56:09;;;;;;;7.50;3.13;;;;;;;26.77;85.69;101188.75;5013098;28;20201;-75
2021/07/23 07:58:36;;;;;;;9.63;3.50;;;;;;;26.75;80.24;101198.03;5013890;28;20416;-77
2021/07/23 08:01:05;;;;;;;8.37;3.20;;;;;;;26.91;80.64;101192.38;5013429;28;20445;-73
2021/07/23 08:03:31;;;;;;;7.50;3.13;;;;;;;26.87;78.96;101188.38;5013264;28;20488;-75
2021/07/23 08:06:01;;;;;;;7.53;2.90;;;;;;;26.70;79.00;101201.34;5013692;28;20490;-73
2021/07/23 08:08:27;;;;;;;6.30;3.10;;;;;;;26.76;78.54;101197.03;5012136;28;20615;-79
2021/07/23 08:10:52;;;;;;;5.40;3.03;;;;;;;26.94;80.39;101193.81;5013278;28;20401;-76
2021/07/23 08:13:18;;;;;;;12.90;4.03;;;;;;;27.13;78.87;101197.69;5012641;28;20218;-75
2021/07/23 08:15:44;;;;;;;6.40;3.43;;;;;;;27.31;76.38;101196.13;5009309;28;20171;-76
2021/07/23 08:18:10;;;;;;;6.53;2.70;;;;;;;27.34;75.37;101192.19;5013205;28;20237;-72
2021/07/23 08:20:37;;;;;;;5.73;3.33;;;;;;;27.25;76.12;101196.09;5012822;28;20731;-76
2021/07/23 08:23:04;;;;;;;4.80;3.10;;;;;;;27.30;75.73;101193.63;5011647;28;20166;-73
2021/07/23 08:25:29;;;;;;;12.47;2.93;;;;;;;27.42;74.91;101196.56;5010914;28;20416;-73
2021/07/23 08:27:55;;;;;;;5.07;2.80;;;;;;;27.39;75.76;101205.91;5012310;28;20413;-74
2021/07/23 08:30:20;;;;;;;6.00;2.70;;;;;;;27.21;75.29;101198.38;5012873;28;20167;-77
2021/07/23 08:32:46;;;;;;;7.03;3.30;;;;;;;27.19;77.34;101200.41;5012790;28;20174;-74
2021/07/23 08:35:13;;;;;;;6.50;2.83;;;;;;;27.11;78.61;101197.88;5010458;28;20345;-77
2021/07/23 08:37:38;;;;;;;4.77;3.03;;;;;;;27.14;78.67;101192.09;5011993;28;20181;-78
2021/07/23 08:40:05;;;;;;;5.70;3.30;;;;;;;27.47;78.18;101191.41;5012198;28;20449;-80
2021/07/23 08:42:33;;;;;;;6.80;3.13;;;;;;;27.81;73.84;101188.63;5011197;28;20273;-77
2021/07/23 08:45:01;;;;;;;10.00;4.40;;;;;;;28.19;74.66;101201.56;5010895;28;20421;-77
2021/07/23 08:47:28;;;;;;;8.50;4.10;;;;;;;28.59;68.78;101191.59;5011334;28;20449;-78
2021/07/23 08:49:54;;;;;;;7.50;3.50;;;;;;;28.96;67.94;101190.09;5011322;28;20432;-75
2021/07/23 08:52:44;;;;;;;8.10;2.97;;;;;;;28.98;65.13;101192.59;5002123;28;20445;-75
2021/07/23 08:55:13;;;;;;;5.30;3.10;;;;;;;28.79;66.85;101191.53;5000387;28;22063;-78
2021/07/23 08:57:39;;;;;;;7.30;3.10;;;;;;;28.81;67.61;101184.06;5005735;28;20547;-76
2021/07/23 09:00:09;;;;;;;7.67;3.53;;;;;;;28.81;67.15;101186.78;5010078;28;20543;-75
2021/07/23 09:02:53;;;;;;;4.87;2.90;;;;;;;28.62;69.26;101185.75;5005641;28;20924;-76
2021/07/23 09:05:21;;;;;;;7.20;3.30;;;;;;;28.51;69.37;101191.81;5011710;28;20472;-72
2021/07/23 09:07:47;;;;;;;4.50;2.90;;;;;;;28.20;67.22;101187.00;5011803;28;20830;-72
2021/07/23 09:10:20;;;;;;;9.07;3.30;;;;;;;28.02;67.97;101184.91;5008995;28;20970;-72
2021/07/23 09:12:50;;;;;;;6.00;3.73;;;;;;;28.20;68.73;101178.91;5010411;28;20282;-75
2021/07/23 09:15:17;;;;;;;6.50;3.83;;;;;;;28.20;70.03;101179.72;5009909;28;20800;-71
2021/07/23 09:17:43;;;;;;;4.70;2.90;;;;;;;28.16;69.94;101188.44;5010112;28;20895;-73
2021/07/23 09:20:09;;;;;;;11.57;3.37;;;;;;;28.30;70.55;101178.50;5010047;28;20457;-72
2021/07/23 09:22:47;;;;;;;5.70;3.83;;;;;;;28.39;68.34;101177.25;5003317;28;20915;-74
2021/07/23 09:25:14;;;;;;;6.40;3.67;;;;;;;28.55;68.04;101162.47;5010903;28;20165;-79
2021/07/23 09:27:40;;;;;;;8.83;5.30;;;;;;;28.76;67.48;101173.03;5011661;28;20414;-72
2021/07/23 09:30:07;;;;;;;7.70;2.97;;;;;;;28.78;64.00;101162.84;5012569;28;20452;-77
2021/07/23 09:32:33;;;;;;;7.87;3.87;;;;;;;28.61;64.91;101167.88;5024125;28;20413;-73
2021/07/23 09:35:10;;;;;;;4.37;2.83;;;;;;;28.42;67.12;101166.88;5010605;28;20457;-78
2021/07/23 09:37:57;;;;;;;6.00;3.37;;;;;;;28.62;67.04;101161.41;5011208;28;20568;-72
2021/07/23 09:40:23;;;;;;;11.10;3.47;;;;;;;28.61;64.12;101161.63;5011356;28;20445;-72
2021/07/23 09:42:56;;;;;;;7.67;4.00;;;;;;;28.88;64.87;101162.41;5012014;28;20467;-73
2021/07/23 09:45:31;;;;;;;3.87;2.70;;;;;;;29.37;63.42;101153.69;5003564;28;20432;-74
2021/07/23 09:48:13;;;;;;;6.17;3.50;;;;;;;29.51;59.81;101160.72;5008588;28;20439;-73
2021/07/23 09:50:43;;;;;;;10.80;8.90;;;;;;;28.96;60.32;101151.38;5008577;28;20463;-73
2021/07/23 09:53:12;;;;;;;6.30;3.70;;;;;;;29.37;60.25;101142.03;5005893;28;20413;-76
2021/07/23 09:55:43;;;;;;;11.60;3.40;;;;;;;29.21;61.20;101135.25;5009881;28;20504;-74
2021/07/23 09:58:08;;;;;;;8.60;3.00;;;;;;;29.10;60.92;101134.06;5006272;28;20992;-72
2021/07/23 10:00:38;;;;;;;7.23;3.63;;;;;;;28.83;61.11;101143.25;4999983;28;20446;-73
2021/07/23 10:03:14;;;;;;;7.77;3.57;;;;;;;29.08;62.77;101138.00;5009006;28;20225;-73
2021/07/23 10:06:02;;;;;;;7.70;3.33;;;;;;;29.36;61.21;101135.78;5008537;28;20511;-72
2021/07/23 10:08:32;;;;;;;13.27;7.07;;;;;;;29.58;60.12;101132.78;5009657;28;20407;-73
2021/07/23 10:11:00;;;;;;;4.47;2.93;;;;;;;29.67;59.39;101139.59;5010621;28;20504;-74
2021/07/23 10:13:29;;;;;;;5.93;3.60;;;;;;;29.83;58.87;101142.59;5010865;28;20404;-77
2021/07/23 10:15:56;;;;;;;7.10;3.87;;;;;;;29.62;57.50;101136.69;5005441;28;20417;-74
2021/07/23 10:18:22;;;;;;;12.43;3.57;;;;;;;29.84;52.88;101146.13;5011078;28;20409;-74
2021/07/23 10:20:48;;;;;;;4.97;3.50;;;;;;;30.33;53.69;101139.09;5010992;28;20978;-80
2021/07/23 10:23:22;;;;;;;6.47;4.43;;;;;;;31.01;52.48;101128.16;5011061;28;20776;-75
2021/07/23 10:25:50;;;;;;;6.70;3.67;;;;;;;31.18;53.46;101129.19;5012027;28;20440;-77
2021/07/23 10:28:41;;;;;;;6.97;3.00;;;;;;;30.76;53.59;101121.97;5011438;28;20406;-73
2021/07/23 10:31:25;;;;;;;8.17;3.27;;;;;;;30.28;55.07;101130.78;5011341;28;20417;-73
2021/07/23 10:33:57;;;;;;;11.53;3.97;;;;;;;30.15;57.11;101134.44;5001925;28;20444;-75
2021/07/23 10:36:26;;;;;;;7.70;3.43;;;;;;;30.52;57.03;101135.34;5010819;28;20476;-73
2021/07/23 10:39:06;;;;;;;5.10;3.33;;;;;;;30.64;55.14;101128.13;5010529;28;20468;-74
2021/07/23 10:41:33;;;;;;;7.40;3.87;;;;;;;30.58;56.40;101131.75;5011349;28;20463;-73
2021/07/23 10:43:59;;;;;;;4.73;3.10;;;;;;;30.33;56.21;101133.69;5010979;28;20926;-75
2021/07/23 10:46:43;;;;;;;7.23;3.40;;;;;;;29.73;60.17;101127.88;5002880;28;20413;-79
2021/07/23 10:49:31;;;;;;;5.43;3.70;;;;;;;29.40;61.86;101115.38;4999316;28;20179;-75
2021/07/23 10:52:01;;;;;;;6.73;3.47;;;;;;;29.23;65.57;101130.44;4995765;28;20414;-77
2021/07/23 10:54:32;;;;;;;6.07;3.93;;;;;;;29.25;60.00;101126.47;5005622;28;20429;-79
2021/07/23 10:57:00;;;;;;;6.80;3.70;;;;;;;29.52;60.32;101121.75;5011277;28;21124;-74
2021/07/23 10:59:38;;;;;;;8.00;3.03;;;;;;;29.53;60.13;101128.84;5010847;28;20804;-75
2021/07/23 11:02:10;;;;;;;7.63;3.77;;;;;;;29.50;56.92;101112.19;5000893;28;20922;-75
2021/07/23 11:04:38;;;;;;;15.80;6.03;;;;;;;29.79;60.40;101113.47;5010970;28;20416;-76
2021/07/23 11:07:05;;;;;;;7.03;3.83;;;;;;;30.10;61.98;101116.16;5042214;28;20417;-73
2021/07/23 11:09:34;;;;;;;12.90;4.13;;;;;;;30.47;63.29;101118.09;5007243;28;20409;-74
2021/07/23 11:12:19;;;;;;;5.90;4.50;;;;;;;30.88;63.32;101112.03;5010757;28;20393;-76
2021/07/23 11:14:51;;;;;;;4.93;3.30;;;;;;;31.40;63.52;101112.41;5003451;28;20683;-78
2021/07/23 11:17:17;;;;;;;5.20;3.30;;;;;;;31.59;63.74;101107.72;5009188;28;20413;-74
2021/07/23 11:19:47;;;;;;;8.87;3.03;;;;;;;31.21;78.03;101112.44;5010323;28;20824;-75